sensor_id;sensor_type;location;lat;lon;timestamp;pressure;altitude;pressure_sealevel;temperature;humidity
48352;BME280;34163;49.314;6.752;2023-08-30T05:12:05;98950.66;;;6.43;100.00
48352;BME280;34163;49.314;6.752;2023-08-30T05:14:31;98947.34;;;6.38;100.00
48352;BME280;34163;49.314;6.752;2023-08-30T05:16:56;98951.59;;;6.42;100.00
48352;BME280;34163;49.314;6.752;2023-08-30T05:19:21;98960.16;;;6.47;100.00
48352;BME280;34163;49.314;6.752;2023-08-30T05:21:46;98958.53;;;6.43;100.00
48352;BME280;34163;49.314;6.752;2023-08-30T05:24:12;98952.38;;;6.44;100.00
48352;BME280;34163;49.314;6.752;2023-08-30T05:26:37;98958.78;;;6.36;100.00
48352;BME280;34163;49.314;6.752;2023-08-30T05:29:03;98958.47;;;6.44;100.00
48352;BME280;34163;49.314;6.752;2023-08-30T05:31:28;98958.66;;;6.40;100.00
48352;BME280;34163;49.314;6.752;2023-08-30T05:33:53;98957.47;;;6.48;100.00
48352;BME280;34163;49.314;6.752;2023-08-30T05:36:18;98949.63;;;6.47;100.00
48352;BME280;34163;49.314;6.752;2023-08-30T05:38:44;98947.91;;;6.46;100.00
48352;BME280;34163;49.314;6.752;2023-08-30T05:41:09;98944.34;;;6.47;100.00
48352;BME280;34163;49.314;6.752;2023-08-30T05:43:34;98950.53;;;6.46;100.00
48352;BME280;34163;49.314;6.752;2023-08-30T05:45:59;98949.63;;;6.47;100.00
48352;BME280;34163;49.314;6.752;2023-08-30T05:48:27;98949.38;;;6.53;100.00
48352;BME280;34163;49.314;6.752;2023-08-30T05:50:53;98946.75;;;6.53;100.00
48352;BME280;34163;49.314;6.752;2023-08-30T05:53:18;98951.19;;;6.51;100.00
48352;BME280;34163;49.314;6.752;2023-08-30T05:55:43;98933.72;;;6.50;100.00
48352;BME280;34163;49.314;6.752;2023-08-30T05:58:08;98942.44;;;6.50;100.00
48352;BME280;34163;49.314;6.752;2023-08-30T06:00:34;98945.03;;;6.52;100.00
48352;BME280;34163;49.314;6.752;2023-08-30T06:02:59;98940.00;;;6.46;100.00
48352;BME280;34163;49.314;6.752;2023-08-30T06:05:24;98933.94;;;6.44;100.00
48352;BME280;34163;49.314;6.752;2023-08-30T06:07:49;98940.88;;;6.46;100.00
48352;BME280;34163;49.314;6.752;2023-08-30T06:10:15;98951.41;;;6.46;100.00
48352;BME280;34163;49.314;6.752;2023-08-30T06:12:40;98952.13;;;6.50;100.00
48352;BME280;34163;49.314;6.752;2023-08-30T06:15:05;98954.16;;;6.43;100.00
48352;BME280;34163;49.314;6.752;2023-08-30T06:17:31;98949.50;;;6.50;100.00
48352;BME280;34163;49.314;6.752;2023-08-30T06:19:57;98950.47;;;6.47;100.00
48352;BME280;34163;49.314;6.752;2023-08-30T06:22:22;98956.63;;;6.48;100.00
48352;BME280;34163;49.314;6.752;2023-08-30T06:24:47;98959.91;;;6.53;100.00
48352;BME280;34163;49.314;6.752;2023-08-30T06:27:12;98958.19;;;6.52;100.00
48352;BME280;34163;49.314;6.752;2023-08-30T06:29:38;98973.84;;;6.55;100.00
48352;BME280;34163;49.314;6.752;2023-08-30T06:32:03;98974.88;;;6.51;100.00
48352;BME280;34163;49.314;6.752;2023-08-30T06:34:29;98982.66;;;6.54;100.00
48352;BME280;34163;49.314;6.752;2023-08-30T06:36:54;98971.34;;;6.52;100.00
48352;BME280;34163;49.314;6.752;2023-08-30T06:39:22;98967.69;;;6.56;100.00
48352;BME280;34163;49.314;6.752;2023-08-30T06:41:48;98976.50;;;6.55;100.00
48352;BME280;34163;49.314;6.752;2023-08-30T06:44:13;98964.06;;;6.59;100.00
48352;BME280;34163;49.314;6.752;2023-08-30T06:46:38;98970.25;;;6.58;100.00
48352;BME280;34163;49.314;6.752;2023-08-30T06:49:05;98966.63;;;6.60;100.00
48352;BME280;34163;49.314;6.752;2023-08-30T06:51:30;98960.75;;;6.53;100.00
48352;BME280;34163;49.314;6.752;2023-08-30T06:53:55;98961.66;;;6.52;100.00
48352;BME280;34163;49.314;6.752;2023-08-30T06:56:25;98967.13;;;6.48;100.00
48352;BME280;34163;49.314;6.752;2023-08-30T06:58:50;98968.94;;;6.46;100.00
48352;BME280;34163;49.314;6.752;2023-08-30T08:02:43;98974.22;;;6.46;100.00
48352;BME280;34163;49.314;6.752;2023-08-30T08:05:09;98982.50;;;6.35;100.00
48352;BME280;34163;49.314;6.752;2023-08-30T08:07:35;98974.72;;;6.33;100.00
48352;BME280;34163;49.314;6.752;2023-08-30T08:10:01;98982.50;;;6.35;100.00
48352;BME280;34163;49.314;6.752;2023-08-30T08:12:26;98972.63;;;6.42;100.00
48352;BME280;34163;49.314;6.752;2023-08-30T08:14:52;98977.06;;;6.40;100.00
48352;BME280;34163;49.314;6.752;2023-08-30T08:17:17;98967.31;;;6.43;100.00
48352;BME280;34163;49.314;6.752;2023-08-30T08:19:42;98971.53;;;6.47;100.00
48352;BME280;34163;49.314;6.752;2023-08-30T08:22:08;98967.38;;;6.42;100.00
48352;BME280;34163;49.314;6.752;2023-08-30T08:24:34;98961.72;;;6.51;100.00
48352;BME280;34163;49.314;6.752;2023-08-30T08:26:59;98964.56;;;6.46;100.00
48352;BME280;34163;49.314;6.752;2023-08-30T08:29:26;98955.72;;;6.47;100.00
48352;BME280;34163;49.314;6.752;2023-08-30T08:31:51;98959.38;;;6.45;100.00
48352;BME280;34163;49.314;6.752;2023-08-30T08:34:16;98957.47;;;6.48;100.00
48352;BME280;34163;49.314;6.752;2023-08-30T08:36:42;98960.09;;;6.48;100.00
48352;BME280;34163;49.314;6.752;2023-08-30T08:39:07;98964.28;;;6.52;100.00
48352;BME280;34163;49.314;6.752;2023-08-30T08:41:43;98962.78;;;6.47;100.00
48352;BME280;34163;49.314;6.752;2023-08-30T08:44:09;98963.69;;;6.46;100.00
48352;BME280;34163;49.314;6.752;2023-08-30T08:46:38;98965.41;;;6.47;100.00
48352;BME280;34163;49.314;6.752;2023-08-30T08:51:47;98962.00;;;6.45;100.00
48352;BME280;34163;49.314;6.752;2023-08-30T08:54:13;98956.63;;;6.48;100.00
48352;BME280;34163;49.314;6.752;2023-08-30T08:56:39;98956.63;;;6.48;100.00
48352;BME280;34163;49.314;6.752;2023-08-30T08:59:05;98955.25;;;6.60;100.00
48352;BME280;34163;49.314;6.752;2023-08-30T09:01:31;98949.94;;;6.61;100.00
48352;BME280;34163;49.314;6.752;2023-08-30T09:03:59;98956.09;;;6.60;100.00
48352;BME280;34163;49.314;6.752;2023-08-30T09:06:24;98959.66;;;6.59;100.00
48352;BME280;34163;49.314;6.752;2023-08-30T09:08:49;98957.81;;;6.61;100.00
48352;BME280;34163;49.314;6.752;2023-08-30T09:11:15;98952.56;;;6.61;100.00
48352;BME280;34163;49.314;6.752;2023-08-30T09:13:41;98952.56;;;6.61;100.00
48352;BME280;34163;49.314;6.752;2023-08-30T09:16:13;98951.72;;;6.61;100.00
48352;BME280;34163;49.314;6.752;2023-08-30T09:18:39;98952.31;;;6.67;100.00
48352;BME280;34163;49.314;6.752;2023-08-30T09:21:08;98943.06;;;6.57;100.00
48352;BME280;34163;49.314;6.752;2023-08-30T09:23:33;98949.16;;;6.59;100.00
48352;BME280;34163;49.314;6.752;2023-08-30T09:25:59;98946.41;;;6.62;100.00
48352;BME280;34163;49.314;6.752;2023-08-30T09:28:24;98940.31;;;6.60;100.00
48352;BME280;34163;49.314;6.752;2023-08-30T09:30:50;98936.78;;;6.61;100.00
48352;BME280;34163;49.314;6.752;2023-08-30T09:33:15;98935.81;;;6.64;100.00
48352;BME280;34163;49.314;6.752;2023-08-30T09:35:44;98930.66;;;6.61;100.00
48352;BME280;34163;49.314;6.752;2023-08-30T09:38:15;98928.69;;;6.66;100.00
48352;BME280;34163;49.314;6.752;2023-08-30T09:40:41;98918.16;;;6.66;100.00
48352;BME280;34163;49.314;6.752;2023-08-30T09:43:09;98919.06;;;6.65;100.00
48352;BME280;34163;49.314;6.752;2023-08-30T09:45:34;98917.03;;;6.71;100.00
48352;BME280;34163;49.314;6.752;2023-08-30T09:48:00;98916.97;;;6.73;100.00
48352;BME280;34163;49.314;6.752;2023-08-30T09:50:25;98918.75;;;6.72;100.00
48352;BME280;34163;49.314;6.752;2023-08-30T09:52:51;98913.31;;;6.77;100.00
48352;BME280;34163;49.314;6.752;2023-08-30T09:55:18;98903.88;;;6.71;100.00
48352;BME280;34163;49.314;6.752;2023-08-30T09:57:43;98906.25;;;6.78;100.00
48352;BME280;34163;49.314;6.752;2023-08-30T10:00:09;98912.34;;;6.80;100.00
48352;BME280;34163;49.314;6.752;2023-08-30T10:02:37;98917.59;;;6.80;100.00
48352;BME280;34163;49.314;6.752;2023-08-30T10:05:02;98914.09;;;6.79;100.00
48352;BME280;34163;49.314;6.752;2023-08-30T10:07:30;98896.38;;;6.83;100.00
48352;BME280;34163;49.314;6.752;2023-08-30T10:09:55;98905.88;;;6.87;100.00
48352;BME280;34163;49.314;6.752;2023-08-30T10:12:21;98890.34;;;6.81;100.00
48352;BME280;34163;49.314;6.752;2023-08-30T10:14:48;98887.28;;;6.69;100.00
48352;BME280;34163;49.314;6.752;2023-08-30T10:17:14;98892.84;;;6.84;100.00
48352;BME280;34163;49.314;6.752;2023-08-30T10:19:43;98884.81;;;6.87;100.00
48352;BME280;34163;49.314;6.752;2023-08-30T10:22:08;98882.19;;;6.87;100.00
48352;BME280;34163;49.314;6.752;2023-08-30T10:27:31;98875.31;;;6.83;100.00
48352;BME280;34163;49.314;6.752;2023-08-30T10:29:58;98877.94;;;6.83;100.00
48352;BME280;34163;49.314;6.752;2023-08-30T10:32:24;98874.41;;;6.84;100.00
48352;BME280;34163;49.314;6.752;2023-08-30T10:34:50;98877.81;;;6.86;100.00
48352;BME280;34163;49.314;6.752;2023-08-30T10:37:16;98868.75;;;6.93;100.00
48352;BME280;34163;49.314;6.752;2023-08-30T10:39:47;98862.91;;;6.86;100.00
48352;BME280;34163;49.314;6.752;2023-08-30T10:42:13;98860.13;;;6.89;100.00
48352;BME280;34163;49.314;6.752;2023-08-30T10:44:48;98857.16;;;6.97;100.00
48352;BME280;34163;49.314;6.752;2023-08-30T10:49:48;98859.25;;;6.89;100.00
48352;BME280;34163;49.314;6.752;2023-08-30T10:52:14;98861.19;;;6.85;100.00
48352;BME280;34163;49.314;6.752;2023-08-30T10:54:39;98853.22;;;6.87;100.00
48352;BME280;34163;49.314;6.752;2023-08-30T10:57:05;98851.28;;;6.90;100.00
48352;BME280;34163;49.314;6.752;2023-08-30T10:59:30;98852.19;;;6.91;100.00
48352;BME280;34163;49.314;6.752;2023-08-30T11:01:55;98843.28;;;6.94;100.00
48352;BME280;34163;49.314;6.752;2023-08-30T11:04:21;98843.34;;;6.92;100.00
48352;BME280;34163;49.314;6.752;2023-08-30T11:06:47;98840.88;;;6.87;100.00
48352;BME280;34163;49.314;6.752;2023-08-30T11:09:13;98840.75;;;6.90;100.00
48352;BME280;34163;49.314;6.752;2023-08-30T11:11:39;98844.28;;;6.91;100.00
48352;BME280;34163;49.314;6.752;2023-08-30T11:14:07;98853.09;;;6.90;100.00
48352;BME280;34163;49.314;6.752;2023-08-30T11:16:36;98853.94;;;6.90;100.00
48352;BME280;34163;49.314;6.752;2023-08-30T11:19:02;98852.88;;;6.95;100.00
48352;BME280;34163;49.314;6.752;2023-08-30T11:21:28;98855.59;;;6.93;100.00
48352;BME280;34163;49.314;6.752;2023-08-30T11:23:54;98854.00;;;6.89;100.00
48352;BME280;34163;49.314;6.752;2023-08-30T11:26:19;98844.78;;;6.99;100.00
48352;BME280;34163;49.314;6.752;2023-08-30T11:28:44;98849.47;;;6.93;100.00
48352;BME280;34163;49.314;6.752;2023-08-30T11:31:22;98846.47;;;7.00;100.00
48352;BME280;34163;49.314;6.752;2023-08-30T11:33:55;98838.59;;;7.00;100.00
48352;BME280;34163;49.314;6.752;2023-08-30T11:36:23;98842.03;;;7.02;100.00
48352;BME280;34163;49.314;6.752;2023-08-30T11:38:49;98836.63;;;7.05;100.00
48352;BME280;34163;49.314;6.752;2023-08-30T11:41:16;98831.50;;;7.02;100.00
48352;BME280;34163;49.314;6.752;2023-08-30T11:43:42;98830.69;;;7.00;100.00
48352;BME280;34163;49.314;6.752;2023-08-30T11:46:08;98829.63;;;7.04;100.00
48352;BME280;34163;49.314;6.752;2023-08-30T11:48:33;98833.44;;;6.97;100.00
48352;BME280;34163;49.314;6.752;2023-08-30T11:50:59;98834.78;;;7.07;100.00
48352;BME280;34163;49.314;6.752;2023-08-30T11:53:24;98829.06;;;6.98;100.00
48352;BME280;34163;49.314;6.752;2023-08-30T11:55:50;98833.44;;;6.97;100.00
48352;BME280;34163;49.314;6.752;2023-08-30T11:58:17;98840.31;;;7.01;100.00
48352;BME280;34163;49.314;6.752;2023-08-30T12:00:42;98831.63;;;6.99;100.00
48352;BME280;34163;49.314;6.752;2023-08-30T12:03:08;98821.94;;;7.00;100.00
48352;BME280;34163;49.314;6.752;2023-08-30T12:05:33;98814.94;;;6.99;100.00
48352;BME280;34163;49.314;6.752;2023-08-30T12:08:00;98824.50;;;7.01;100.00
48352;BME280;34163;49.314;6.752;2023-08-30T12:10:26;98821.66;;;7.06;100.00
48352;BME280;34163;49.314;6.752;2023-08-30T12:12:53;98818.25;;;7.04;100.00
48352;BME280;34163;49.314;6.752;2023-08-30T12:15:18;98816.53;;;7.03;100.00
48352;BME280;34163;49.314;6.752;2023-08-30T12:17:44;98816.59;;;7.01;100.00
48352;BME280;34163;49.314;6.752;2023-08-30T12:20:16;98822.66;;;7.03;100.00
48352;BME280;34163;49.314;6.752;2023-08-30T12:22:48;98818.13;;;7.07;100.00
48352;BME280;34163;49.314;6.752;2023-08-30T12:25:16;98815.69;;;7.02;100.00
48352;BME280;34163;49.314;6.752;2023-08-30T12:27:42;98808.69;;;7.01;100.00
48352;BME280;34163;49.314;6.752;2023-08-30T12:30:08;98807.03;;;6.99;100.00
48352;BME280;34163;49.314;6.752;2023-08-30T12:32:33;98806.97;;;7.00;100.00
48352;BME280;34163;49.314;6.752;2023-08-30T12:34:58;98813.91;;;7.03;100.00
48352;BME280;34163;49.314;6.752;2023-08-30T12:37:24;98802.00;;;6.94;100.00
48352;BME280;34163;49.314;6.752;2023-08-30T12:39:49;98808.84;;;6.98;100.00
48352;BME280;34163;49.314;6.752;2023-08-30T12:42:14;98806.72;;;7.06;100.00
48352;BME280;34163;49.314;6.752;2023-08-30T12:44:40;98806.50;;;7.11;100.00
48352;BME280;34163;49.314;6.752;2023-08-30T12:47:05;98817.25;;;7.06;100.00
48352;BME280;34163;49.314;6.752;2023-08-30T12:49:30;98815.00;;;6.97;100.00
48352;BME280;34163;49.314;6.752;2023-08-30T12:51:55;98807.91;;;6.99;100.00
48352;BME280;34163;49.314;6.752;2023-08-30T12:54:20;98815.56;;;7.05;100.00
48352;BME280;34163;49.314;6.752;2023-08-30T12:56:46;98814.09;;;6.98;100.00
48352;BME280;34163;49.314;6.752;2023-08-30T12:59:11;98816.00;;;7.15;100.00
48352;BME280;34163;49.314;6.752;2023-08-30T13:01:36;98822.59;;;7.05;100.00
48352;BME280;34163;49.314;6.752;2023-08-30T13:04:01;98812.66;;;7.12;100.00
48352;BME280;34163;49.314;6.752;2023-08-30T13:06:28;98824.38;;;7.04;100.00
48352;BME280;34163;49.314;6.752;2023-08-30T13:08:53;98821.47;;;7.11;100.00
48352;BME280;34163;49.314;6.752;2023-08-30T13:11:19;98817.13;;;7.09;100.00
48352;BME280;34163;49.314;6.752;2023-08-30T13:13:44;98816.97;;;7.13;100.00
48352;BME280;34163;49.314;6.752;2023-08-30T13:16:09;98813.56;;;7.11;100.00
48352;BME280;34163;49.314;6.752;2023-08-30T13:18:34;98812.72;;;7.10;100.00
48352;BME280;34163;49.314;6.752;2023-08-30T13:21:00;98804.34;;;7.00;100.00
48352;BME280;34163;49.314;6.752;2023-08-30T13:23:25;98813.97;;;7.01;100.00
48352;BME280;34163;49.314;6.752;2023-08-30T13:25:50;98818.97;;;7.07;100.00
48352;BME280;34163;49.314;6.752;2023-08-30T13:28:15;98813.13;;;7.01;100.00
48352;BME280;34163;49.314;6.752;2023-08-30T13:30:44;98813.72;;;7.07;100.00
48352;BME280;34163;49.314;6.752;2023-08-30T13:33:10;98811.28;;;7.03;100.00
48352;BME280;34163;49.314;6.752;2023-08-30T13:35:35;98818.13;;;7.07;100.00
48352;BME280;34163;49.314;6.752;2023-08-30T13:38:01;98822.13;;;7.16;100.00
48352;BME280;34163;49.314;6.752;2023-08-30T13:40:26;98833.91;;;7.27;100.00
48352;BME280;34163;49.314;6.752;2023-08-30T13:42:51;98829.78;;;7.01;100.00
48352;BME280;34163;49.314;6.752;2023-08-30T13:45:16;98836.50;;;7.08;100.00
48352;BME280;34163;49.314;6.752;2023-08-30T13:47:42;98830.41;;;7.06;100.00
48352;BME280;34163;49.314;6.752;2023-08-30T13:50:07;98842.16;;;6.99;100.00
48352;BME280;34163;49.314;6.752;2023-08-30T13:52:33;98832.22;;;7.06;100.00
48352;BME280;34163;49.314;6.752;2023-08-30T13:54:58;98837.28;;;7.11;100.00
48352;BME280;34163;49.314;6.752;2023-08-30T13:57:24;98847.03;;;7.08;100.00
48352;BME280;34163;49.314;6.752;2023-08-30T13:59:49;98837.47;;;7.06;100.00
48352;BME280;34163;49.314;6.752;2023-08-30T14:02:14;98844.59;;;7.04;100.00
48352;BME280;34163;49.314;6.752;2023-08-30T14:04:42;98837.09;;;7.15;100.00
48352;BME280;34163;49.314;6.752;2023-08-30T14:07:07;98838.06;;;7.13;100.00
48352;BME280;34163;49.314;6.752;2023-08-30T14:09:34;98843.31;;;7.13;100.00
48352;BME280;34163;49.314;6.752;2023-08-30T14:11:59;98837.94;;;7.16;100.00
48352;BME280;34163;49.314;6.752;2023-08-30T14:14:25;98835.44;;;7.13;100.00
48352;BME280;34163;49.314;6.752;2023-08-30T14:16:50;98843.72;;;7.03;100.00
48352;BME280;34163;49.314;6.752;2023-08-30T14:19:15;98844.34;;;7.10;100.00
48352;BME280;34163;49.314;6.752;2023-08-30T14:21:41;98834.66;;;7.11;100.00
48352;BME280;34163;49.314;6.752;2023-08-30T14:24:06;98832.00;;;7.11;100.00
48352;BME280;34163;49.314;6.752;2023-08-30T14:26:31;98825.22;;;7.05;100.00
48352;BME280;34163;49.314;6.752;2023-08-30T14:28:57;98831.22;;;7.08;100.00
48352;BME280;34163;49.314;6.752;2023-08-30T14:31:22;98830.22;;;7.11;100.00
48352;BME280;34163;49.314;6.752;2023-08-30T14:33:47;98831.81;;;7.15;100.00
48352;BME280;34163;49.314;6.752;2023-08-30T14:36:13;98827.59;;;7.11;100.00
48352;BME280;34163;49.314;6.752;2023-08-30T14:38:40;98823.91;;;7.15;100.00
48352;BME280;34163;49.314;6.752;2023-08-30T14:41:06;98825.41;;;7.21;100.00
48352;BME280;34163;49.314;6.752;2023-08-30T14:43:31;98817.63;;;7.18;100.00
48352;BME280;34163;49.314;6.752;2023-08-30T14:46:00;98808.81;;;7.19;100.00
48352;BME280;34163;49.314;6.752;2023-08-30T14:48:26;98813.03;;;7.23;100.00
48352;BME280;34163;49.314;6.752;2023-08-30T14:50:51;98813.03;;;7.23;100.00
48352;BME280;34163;49.314;6.752;2023-08-30T14:53:16;98808.75;;;7.20;100.00
48352;BME280;34163;49.314;6.752;2023-08-30T14:55:44;98806.31;;;7.16;100.00
48352;BME280;34163;49.314;6.752;2023-08-30T14:58:09;98808.75;;;7.20;100.00
48352;BME280;34163;49.314;6.752;2023-08-30T15:00:34;98807.97;;;7.18;100.00
48352;BME280;34163;49.314;6.752;2023-08-30T15:02:59;98799.06;;;7.21;100.00
48352;BME280;34163;49.314;6.752;2023-08-30T15:05:25;98798.28;;;7.19;100.00
48352;BME280;34163;49.314;6.752;2023-08-30T15:07:50;98791.16;;;7.21;100.00
48352;BME280;34163;49.314;6.752;2023-08-30T15:10:15;98791.16;;;7.21;100.00
48352;BME280;34163;49.314;6.752;2023-08-30T15:12:41;98793.56;;;7.25;100.00
48352;BME280;34163;49.314;6.752;2023-08-30T15:15:06;98789.38;;;7.21;100.00
48352;BME280;34163;49.314;6.752;2023-08-30T15:17:31;98799.72;;;7.26;100.00
48352;BME280;34163;49.314;6.752;2023-08-30T15:19:57;98798.78;;;7.27;100.00
48352;BME280;34163;49.314;6.752;2023-08-30T15:22:22;98786.69;;;7.23;100.00
48352;BME280;34163;49.314;6.752;2023-08-30T15:24:48;98788.88;;;7.32;100.00
48352;BME280;34163;49.314;6.752;2023-08-30T15:27:16;98790.16;;;7.23;100.00
48352;BME280;34163;49.314;6.752;2023-08-30T15:29:42;98789.91;;;7.30;100.00
48352;BME280;34163;49.314;6.752;2023-08-30T15:32:08;98784.81;;;7.25;100.00
48352;BME280;34163;49.314;6.752;2023-08-30T15:34:33;98778.47;;;7.29;100.00
48352;BME280;34163;49.314;6.752;2023-08-30T15:36:58;98782.84;;;7.30;100.00
48352;BME280;34163;49.314;6.752;2023-08-30T15:39:23;98778.41;;;7.31;100.00
48352;BME280;34163;49.314;6.752;2023-08-30T15:41:49;98785.59;;;7.27;100.00
48352;BME280;34163;49.314;6.752;2023-08-30T15:44:14;98784.13;;;7.21;100.00
48352;BME280;34163;49.314;6.752;2023-08-30T15:46:40;98789.97;;;7.28;100.00
48352;BME280;34163;49.314;6.752;2023-08-30T15:49:05;98790.03;;;7.26;100.00
48352;BME280;34163;49.314;6.752;2023-08-30T15:51:30;98807.75;;;7.23;100.00
48352;BME280;34163;49.314;6.752;2023-08-30T15:53:56;98821.72;;;7.25;100.00
48352;BME280;34163;49.314;6.752;2023-08-30T15:56:21;98823.75;;;7.39;100.00
48352;BME280;34163;49.314;6.752;2023-08-30T15:58:47;98825.78;;;7.32;100.00
48352;BME280;34163;49.314;6.752;2023-08-30T16:01:12;98834.13;;;7.23;100.00
48352;BME280;34163;49.314;6.752;2023-08-30T16:03:39;98847.56;;;7.17;100.00
48352;BME280;34163;49.314;6.752;2023-08-30T16:06:04;98862.41;;;7.18;100.00
48352;BME280;34163;49.314;6.752;2023-08-30T16:08:30;98862.91;;;7.27;100.00
48352;BME280;34163;49.314;6.752;2023-08-30T16:10:55;98862.97;;;7.26;100.00
48352;BME280;34163;49.314;6.752;2023-08-30T16:13:21;98852.69;;;7.20;100.00
48352;BME280;34163;49.314;6.752;2023-08-30T16:15:46;98855.84;;;7.28;100.00
48352;BME280;34163;49.314;6.752;2023-08-30T16:18:11;98837.78;;;7.19;100.00
48352;BME280;34163;49.314;6.752;2023-08-30T16:20:37;98836.69;;;7.24;100.00
48352;BME280;34163;49.314;6.752;2023-08-30T16:23:02;98841.06;;;7.24;100.00
48352;BME280;34163;49.314;6.752;2023-08-30T16:25:27;98832.13;;;7.28;100.00
48352;BME280;34163;49.314;6.752;2023-08-30T16:27:53;98842.72;;;7.26;100.00
48352;BME280;34163;49.314;6.752;2023-08-30T16:30:18;98831.75;;;8.85;100.00
48352;BME280;34163;49.314;6.752;2023-08-30T16:32:43;98834.13;;;7.99;100.00
48352;BME280;34163;49.314;6.752;2023-08-30T16:35:09;98836.53;;;7.46;100.00
48352;BME280;34163;49.314;6.752;2023-08-30T16:37:34;98851.94;;;7.37;100.00
48352;BME280;34163;49.314;6.752;2023-08-30T16:39:59;98838.75;;;7.37;100.00
48352;BME280;34163;49.314;6.752;2023-08-30T16:42:25;98840.81;;;7.30;100.00
48352;BME280;34163;49.314;6.752;2023-08-30T16:44:50;98832.06;;;7.30;100.00
48352;BME280;34163;49.314;6.752;2023-08-30T16:47:15;98838.38;;;7.25;100.00
48352;BME280;34163;49.314;6.752;2023-08-30T16:49:43;98839.31;;;7.24;100.00
48352;BME280;34163;49.314;6.752;2023-08-30T16:52:08;98843.50;;;7.28;100.00
48352;BME280;34163;49.314;6.752;2023-08-30T16:54:35;98836.53;;;7.27;100.00
48352;BME280;34163;49.314;6.752;2023-08-30T16:57:01;98842.94;;;7.22;100.00
48352;BME280;34163;49.314;6.752;2023-08-30T16:59:27;98842.72;;;7.26;100.00
48352;BME280;34163;49.314;6.752;2023-08-30T17:01:52;98834.69;;;7.30;100.00
48352;BME280;34163;49.314;6.752;2023-08-30T17:04:18;98829.69;;;7.23;100.00
48352;BME280;34163;49.314;6.752;2023-08-30T17:06:43;98835.66;;;7.27;100.00
48352;BME280;34163;49.314;6.752;2023-08-30T17:09:08;98836.75;;;7.23;100.00
48352;BME280;34163;49.314;6.752;2023-08-30T17:11:34;98832.66;;;7.16;100.00
48352;BME280;34163;49.314;6.752;2023-08-30T17:14:00;98821.72;;;7.25;100.00
48352;BME280;34163;49.314;6.752;2023-08-30T17:16:25;98833.25;;;7.22;100.00
48352;BME280;34163;49.314;6.752;2023-08-30T17:18:50;98842.09;;;7.21;100.00
48352;BME280;34163;49.314;6.752;2023-08-30T17:21:16;98843.66;;;7.25;100.00
48352;BME280;34163;49.314;6.752;2023-08-30T17:23:41;98839.25;;;7.26;100.00
48352;BME280;34163;49.314;6.752;2023-08-30T17:26:06;98841.22;;;7.21;100.00
48352;BME280;34163;49.314;6.752;2023-08-30T17:28:32;98850.78;;;7.23;100.00
48352;BME280;34163;49.314;6.752;2023-08-30T17:30:58;98849.94;;;7.23;100.00
48352;BME280;34163;49.314;6.752;2023-08-30T17:33:23;98842.88;;;7.23;100.00
48352;BME280;34163;49.314;6.752;2023-08-30T17:35:51;98840.94;;;7.27;100.00
48352;BME280;34163;49.314;6.752;2023-08-30T17:38:17;98845.38;;;7.26;100.00
48352;BME280;34163;49.314;6.752;2023-08-30T17:40:42;98848.19;;;7.22;100.00
48352;BME280;34163;49.314;6.752;2023-08-30T17:43:07;98851.47;;;7.27;100.00
48352;BME280;34163;49.314;6.752;2023-08-30T17:45:32;98855.13;;;7.24;100.00
48352;BME280;34163;49.314;6.752;2023-08-30T17:48:01;98854.06;;;7.28;100.00
48352;BME280;34163;49.314;6.752;2023-08-30T17:50:27;98858.53;;;7.26;100.00
48352;BME280;34163;49.314;6.752;2023-08-30T17:52:53;98862.97;;;7.26;100.00
48352;BME280;34163;49.314;6.752;2023-08-30T17:55:18;98855.97;;;7.25;100.00
48352;BME280;34163;49.314;6.752;2023-08-30T17:57:43;98846.53;;;7.19;100.00
48352;BME280;34163;49.314;6.752;2023-08-30T18:00:09;98862.16;;;7.24;100.00
48352;BME280;34163;49.314;6.752;2023-08-30T18:02:35;98865.66;;;7.24;100.00
48352;BME280;34163;49.314;6.752;2023-08-30T18:05:01;98860.34;;;7.26;100.00
48352;BME280;34163;49.314;6.752;2023-08-30T18:07:31;98861.25;;;7.25;100.00
48352;BME280;34163;49.314;6.752;2023-08-30T18:09:56;98878.91;;;7.23;100.00
48352;BME280;34163;49.314;6.752;2023-08-30T18:12:21;98887.59;;;7.25;100.00
48352;BME280;34163;49.314;6.752;2023-08-30T18:14:47;98913.47;;;7.36;100.00
48352;BME280;34163;49.314;6.752;2023-08-30T18:17:12;98914.78;;;7.25;100.00
48352;BME280;34163;49.314;6.752;2023-08-30T18:19:37;98910.59;;;7.21;100.00
48352;BME280;34163;49.314;6.752;2023-08-30T18:22:03;98911.50;;;7.20;100.00
48352;BME280;34163;49.314;6.752;2023-08-30T18:24:29;98913.41;;;7.17;100.00
48352;BME280;34163;49.314;6.752;2023-08-30T18:26:55;98919.28;;;7.23;100.00
48352;BME280;34163;49.314;6.752;2023-08-30T18:29:21;98912.97;;;7.27;100.00
48352;BME280;34163;49.314;6.752;2023-08-30T18:31:48;98909.78;;;7.19;100.00
48352;BME280;34163;49.314;6.752;2023-08-30T18:34:15;98910.59;;;7.21;100.00
48352;BME280;34163;49.314;6.752;2023-08-30T18:36:40;98914.91;;;7.22;100.00
48352;BME280;34163;49.314;6.752;2023-08-30T18:39:08;98930.66;;;7.24;100.00
48352;BME280;34163;49.314;6.752;2023-08-30T18:41:33;98934.50;;;7.17;100.00
48352;BME280;34163;49.314;6.752;2023-08-30T18:43:58;98937.78;;;7.22;100.00
48352;BME280;34163;49.314;6.752;2023-08-30T18:46:24;98929.03;;;7.21;100.00
48352;BME280;34163;49.314;6.752;2023-08-30T18:48:49;98936.13;;;7.19;100.00
48352;BME280;34163;49.314;6.752;2023-08-30T18:51:16;98939.97;;;7.12;100.00
48352;BME280;34163;49.314;6.752;2023-08-30T18:53:48;98941.47;;;7.18;100.00
48352;BME280;34163;49.314;6.752;2023-08-30T18:56:13;98942.22;;;7.21;100.00
48352;BME280;34163;49.314;6.752;2023-08-30T18:58:40;98947.72;;;7.15;100.00
48352;BME280;34163;49.314;6.752;2023-08-30T19:01:06;98945.03;;;7.17;100.00
48352;BME280;34163;49.314;6.752;2023-08-30T19:03:31;98952.13;;;7.15;100.00
48352;BME280;34163;49.314;6.752;2023-08-30T19:05:56;98954.63;;;7.18;100.00
48352;BME280;34163;49.314;6.752;2023-08-30T19:08:25;98958.28;;;7.15;100.00
48352;BME280;34163;49.314;6.752;2023-08-30T19:10:50;98970.50;;;7.16;100.00
48352;BME280;34163;49.314;6.752;2023-08-30T19:13:15;98963.03;;;7.27;100.00